sensor_id;sensor_type;location;lat;lon;timestamp;temperature;humidity
16907;DHT22;8570;52.380;4.654;2022-11-15T00:04:20;6.90;99.90
16907;DHT22;8570;52.380;4.654;2022-11-15T00:09:22;6.90;99.90
16907;DHT22;8570;52.380;4.654;2022-11-15T00:14:33;7.00;99.90
16907;DHT22;8570;52.380;4.654;2022-11-15T00:19:39;7.00;99.90
16907;DHT22;8570;52.380;4.654;2022-11-15T00:24:40;7.00;99.90
16907;DHT22;8570;52.380;4.654;2022-11-15T00:29:43;7.00;99.90
16907;DHT22;8570;52.380;4.654;2022-11-15T00:34:46;7.10;99.90
16907;DHT22;8570;52.380;4.654;2022-11-15T00:39:48;7.10;99.90
16907;DHT22;8570;52.380;4.654;2022-11-15T00:44:50;7.10;99.90
16907;DHT22;8570;52.380;4.654;2022-11-15T00:49:53;7.10;99.90
16907;DHT22;8570;52.380;4.654;2022-11-15T00:54:55;7.20;99.90
16907;DHT22;8570;52.380;4.654;2022-11-15T00:59:57;7.20;99.90
16907;DHT22;8570;52.380;4.654;2022-11-15T01:05:00;7.20;99.90
16907;DHT22;8570;52.380;4.654;2022-11-15T01:10:03;7.20;99.90
16907;DHT22;8570;52.380;4.654;2022-11-15T01:15:05;7.20;99.90
16907;DHT22;8570;52.380;4.654;2022-11-15T01:20:09;7.20;99.90
16907;DHT22;8570;52.380;4.654;2022-11-15T01:25:11;7.30;99.90
16907;DHT22;8570;52.380;4.654;2022-11-15T01:30:14;7.30;99.90
16907;DHT22;8570;52.380;4.654;2022-11-15T01:35:17;7.30;99.90
16907;DHT22;8570;52.380;4.654;2022-11-15T01:40:20;7.30;99.90
16907;DHT22;8570;52.380;4.654;2022-11-15T01:45:22;7.30;99.90
16907;DHT22;8570;52.380;4.654;2022-11-15T01:50:28;7.30;99.90
16907;DHT22;8570;52.380;4.654;2022-11-15T01:55:32;7.40;99.90
16907;DHT22;8570;52.380;4.654;2022-11-15T02:00:34;7.40;99.90
16907;DHT22;8570;52.380;4.654;2022-11-15T02:05:38;7.40;99.90
16907;DHT22;8570;52.380;4.654;2022-11-15T02:10:40;7.40;99.90
16907;DHT22;8570;52.380;4.654;2022-11-15T02:15:52;7.40;99.90
16907;DHT22;8570;52.380;4.654;2022-11-15T02:21:10;7.40;99.90
16907;DHT22;8570;52.380;4.654;2022-11-15T02:26:50;7.40;99.90
16907;DHT22;8570;52.380;4.654;2022-11-15T02:32:03;7.50;99.90
16907;DHT22;8570;52.380;4.654;2022-11-15T02:37:14;7.50;99.90
16907;DHT22;8570;52.380;4.654;2022-11-15T02:42:21;7.50;99.90
16907;DHT22;8570;52.380;4.654;2022-11-15T02:47:46;7.50;99.90
16907;DHT22;8570;52.380;4.654;2022-11-15T02:52:49;7.60;99.90
16907;DHT22;8570;52.380;4.654;2022-11-15T02:57:54;7.60;99.90
16907;DHT22;8570;52.380;4.654;2022-11-15T03:03:21;7.70;99.90
16907;DHT22;8570;52.380;4.654;2022-11-15T03:08:29;7.70;99.90
16907;DHT22;8570;52.380;4.654;2022-11-15T03:13:37;7.70;99.90
16907;DHT22;8570;52.380;4.654;2022-11-15T03:18:45;7.70;99.90
16907;DHT22;8570;52.380;4.654;2022-11-15T03:23:51;7.80;99.90
16907;DHT22;8570;52.380;4.654;2022-11-15T03:28:56;7.80;99.90
16907;DHT22;8570;52.380;4.654;2022-11-15T03:34:03;7.90;99.90
16907;DHT22;8570;52.380;4.654;2022-11-15T03:39:07;7.90;99.90
16907;DHT22;8570;52.380;4.654;2022-11-15T03:44:13;8.00;99.90
16907;DHT22;8570;52.380;4.654;2022-11-15T03:49:24;8.10;99.90
16907;DHT22;8570;52.380;4.654;2022-11-15T03:54:27;8.10;99.90
16907;DHT22;8570;52.380;4.654;2022-11-15T03:59:29;8.30;99.90
16907;DHT22;8570;52.380;4.654;2022-11-15T04:04:32;8.30;99.90
16907;DHT22;8570;52.380;4.654;2022-11-15T04:09:34;8.40;99.90
16907;DHT22;8570;52.380;4.654;2022-11-15T04:14:58;8.50;99.90
16907;DHT22;8570;52.380;4.654;2022-11-15T04:20:21;8.60;99.90
16907;DHT22;8570;52.380;4.654;2022-11-15T04:25:42;8.70;99.90
16907;DHT22;8570;52.380;4.654;2022-11-15T04:30:44;8.80;99.90
16907;DHT22;8570;52.380;4.654;2022-11-15T04:35:48;8.90;99.90
16907;DHT22;8570;52.380;4.654;2022-11-15T04:41:04;9.00;99.90
16907;DHT22;8570;52.380;4.654;2022-11-15T04:46:06;9.00;99.90
16907;DHT22;8570;52.380;4.654;2022-11-15T04:51:09;9.10;99.90
16907;DHT22;8570;52.380;4.654;2022-11-15T04:56:11;9.20;99.90
16907;DHT22;8570;52.380;4.654;2022-11-15T05:01:14;9.30;99.90
16907;DHT22;8570;52.380;4.654;2022-11-15T05:06:17;9.30;99.90
16907;DHT22;8570;52.380;4.654;2022-11-15T05:11:19;9.40;99.90
16907;DHT22;8570;52.380;4.654;2022-11-15T05:16:21;9.40;99.90
16907;DHT22;8570;52.380;4.654;2022-11-15T05:21:24;9.50;99.90
16907;DHT22;8570;52.380;4.654;2022-11-15T05:26:27;9.60;99.90
16907;DHT22;8570;52.380;4.654;2022-11-15T05:31:29;9.60;99.90
16907;DHT22;8570;52.380;4.654;2022-11-15T05:36:35;9.70;99.90
16907;DHT22;8570;52.380;4.654;2022-11-15T05:41:39;9.70;99.90
16907;DHT22;8570;52.380;4.654;2022-11-15T05:46:43;9.80;99.90
16907;DHT22;8570;52.380;4.654;2022-11-15T05:51:47;9.80;99.90
16907;DHT22;8570;52.380;4.654;2022-11-15T05:56:49;9.80;99.90
16907;DHT22;8570;52.380;4.654;2022-11-15T06:01:51;9.90;99.90
16907;DHT22;8570;52.380;4.654;2022-11-15T06:06:55;9.90;99.90
16907;DHT22;8570;52.380;4.654;2022-11-15T06:11:56;10.00;99.90
16907;DHT22;8570;52.380;4.654;2022-11-15T06:17:00;10.00;99.90
16907;DHT22;8570;52.380;4.654;2022-11-15T06:22:03;10.00;99.90
16907;DHT22;8570;52.380;4.654;2022-11-15T06:27:05;10.10;99.90
16907;DHT22;8570;52.380;4.654;2022-11-15T06:32:07;10.10;99.90
16907;DHT22;8570;52.380;4.654;2022-11-15T06:37:11;10.10;99.90
16907;DHT22;8570;52.380;4.654;2022-11-15T06:42:12;10.10;99.90
16907;DHT22;8570;52.380;4.654;2022-11-15T06:47:14;10.20;99.90
16907;DHT22;8570;52.380;4.654;2022-11-15T06:52:17;10.20;99.90
16907;DHT22;8570;52.380;4.654;2022-11-15T06:57:20;10.20;99.90
16907;DHT22;8570;52.380;4.654;2022-11-15T07:02:21;10.20;99.90
16907;DHT22;8570;52.380;4.654;2022-11-15T07:07:25;10.20;99.90
16907;DHT22;8570;52.380;4.654;2022-11-15T07:12:27;10.20;99.90
16907;DHT22;8570;52.380;4.654;2022-11-15T07:17:29;10.20;99.90
16907;DHT22;8570;52.380;4.654;2022-11-15T07:22:32;10.10;99.90
16907;DHT22;8570;52.380;4.654;2022-11-15T07:27:34;10.10;99.90
16907;DHT22;8570;52.380;4.654;2022-11-15T07:32:36;10.10;99.90
16907;DHT22;8570;52.380;4.654;2022-11-15T07:37:39;10.10;99.90
16907;DHT22;8570;52.380;4.654;2022-11-15T07:42:42;10.10;99.90
16907;DHT22;8570;52.380;4.654;2022-11-15T07:47:56;10.10;99.90
16907;DHT22;8570;52.380;4.654;2022-11-15T07:53:00;10.10;99.90
16907;DHT22;8570;52.380;4.654;2022-11-15T07:58:02;10.10;99.90
16907;DHT22;8570;52.380;4.654;2022-11-15T08:03:06;10.10;99.90
16907;DHT22;8570;52.380;4.654;2022-11-15T08:08:10;10.10;99.90
16907;DHT22;8570;52.380;4.654;2022-11-15T08:13:13;10.10;99.90
16907;DHT22;8570;52.380;4.654;2022-11-15T08:18:16;10.10;99.90
16907;DHT22;8570;52.380;4.654;2022-11-15T08:23:19;10.10;99.90
16907;DHT22;8570;52.380;4.654;2022-11-15T08:28:21;10.10;99.90
16907;DHT22;8570;52.380;4.654;2022-11-15T08:33:23;10.10;99.90
16907;DHT22;8570;52.380;4.654;2022-11-15T08:38:27;10.10;99.90
16907;DHT22;8570;52.380;4.654;2022-11-15T08:43:30;10.10;99.90
16907;DHT22;8570;52.380;4.654;2022-11-15T08:48:32;10.10;99.90
16907;DHT22;8570;52.380;4.654;2022-11-15T08:53:35;10.10;99.90
16907;DHT22;8570;52.380;4.654;2022-11-15T08:58:37;10.20;99.90
16907;DHT22;8570;52.380;4.654;2022-11-15T09:03:40;10.20;99.90
16907;DHT22;8570;52.380;4.654;2022-11-15T09:08:43;10.30;99.90
16907;DHT22;8570;52.380;4.654;2022-11-15T09:13:45;10.30;99.90
16907;DHT22;8570;52.380;4.654;2022-11-15T09:18:47;10.40;99.90
16907;DHT22;8570;52.380;4.654;2022-11-15T09:23:51;10.60;99.90
16907;DHT22;8570;52.380;4.654;2022-11-15T09:28:53;10.80;99.90
16907;DHT22;8570;52.380;4.654;2022-11-15T09:33:55;11.10;99.90
16907;DHT22;8570;52.380;4.654;2022-11-15T09:38:58;11.40;99.90
16907;DHT22;8570;52.380;4.654;2022-11-15T09:44:12;11.60;99.90
16907;DHT22;8570;52.380;4.654;2022-11-15T09:49:16;11.60;99.90
16907;DHT22;8570;52.380;4.654;2022-11-15T09:54:27;11.70;99.90
16907;DHT22;8570;52.380;4.654;2022-11-15T09:59:43;11.60;99.90
16907;DHT22;8570;52.380;4.654;2022-11-15T10:04:48;11.60;99.90
16907;DHT22;8570;52.380;4.654;2022-11-15T10:09:54;11.60;99.90
16907;DHT22;8570;52.380;4.654;2022-11-15T10:15:02;11.60;99.90
16907;DHT22;8570;52.380;4.654;2022-11-15T10:20:12;11.60;99.90
16907;DHT22;8570;52.380;4.654;2022-11-15T10:30:28;11.80;99.90
16907;DHT22;8570;52.380;4.654;2022-11-15T10:35:31;11.90;99.90
16907;DHT22;8570;52.380;4.654;2022-11-15T10:40:35;12.10;99.90
16907;DHT22;8570;52.380;4.654;2022-11-15T10:45:37;12.30;99.90
16907;DHT22;8570;52.380;4.654;2022-11-15T10:50:40;12.50;99.90
16907;DHT22;8570;52.380;4.654;2022-11-15T10:55:47;12.60;99.90
16907;DHT22;8570;52.380;4.654;2022-11-15T11:00:53;12.70;99.90
16907;DHT22;8570;52.380;4.654;2022-11-15T11:06:05;12.80;99.90
16907;DHT22;8570;52.380;4.654;2022-11-15T11:11:09;12.90;99.90
16907;DHT22;8570;52.380;4.654;2022-11-15T11:16:32;13.00;99.90
16907;DHT22;8570;52.380;4.654;2022-11-15T11:21:43;13.00;99.90
16907;DHT22;8570;52.380;4.654;2022-11-15T11:26:59;13.00;99.90
16907;DHT22;8570;52.380;4.654;2022-11-15T11:32:25;13.10;99.90
16907;DHT22;8570;52.380;4.654;2022-11-15T11:37:36;13.10;99.90
16907;DHT22;8570;52.380;4.654;2022-11-15T11:42:46;13.00;99.90
16907;DHT22;8570;52.380;4.654;2022-11-15T11:47:59;13.00;99.90
16907;DHT22;8570;52.380;4.654;2022-11-15T11:53:12;13.00;99.90
16907;DHT22;8570;52.380;4.654;2022-11-15T11:58:19;13.00;99.90
16907;DHT22;8570;52.380;4.654;2022-11-15T12:03:26;13.20;99.90
16907;DHT22;8570;52.380;4.654;2022-11-15T12:08:35;13.30;99.90
16907;DHT22;8570;52.380;4.654;2022-11-15T12:13:43;13.40;99.90
16907;DHT22;8570;52.380;4.654;2022-11-15T12:18:50;13.40;99.90
16907;DHT22;8570;52.380;4.654;2022-11-15T12:23:55;13.50;99.90
16907;DHT22;8570;52.380;4.654;2022-11-15T12:29:09;13.50;99.90
16907;DHT22;8570;52.380;4.654;2022-11-15T12:34:31;13.50;99.90
16907;DHT22;8570;52.380;4.654;2022-11-15T12:40:05;13.40;99.90
16907;DHT22;8570;52.380;4.654;2022-11-15T12:45:25;13.20;99.90
16907;DHT22;8570;52.380;4.654;2022-11-15T12:50:55;13.10;99.90
16907;DHT22;8570;52.380;4.654;2022-11-15T12:56:18;13.00;99.90
16907;DHT22;8570;52.380;4.654;2022-11-15T13:01:57;12.80;99.90
16907;DHT22;8570;52.380;4.654;2022-11-15T13:07:02;12.70;99.90
16907;DHT22;8570;52.380;4.654;2022-11-15T13:12:07;12.70;99.90
16907;DHT22;8570;52.380;4.654;2022-11-15T13:17:44;12.60;99.90
16907;DHT22;8570;52.380;4.654;2022-11-15T13:22:48;12.60;99.90
16907;DHT22;8570;52.380;4.654;2022-11-15T13:27:54;12.50;99.90
16907;DHT22;8570;52.380;4.654;2022-11-15T13:33:06;12.40;99.90
16907;DHT22;8570;52.380;4.654;2022-11-15T13:38:18;12.40;99.90
16907;DHT22;8570;52.380;4.654;2022-11-15T13:43:28;12.40;99.90
16907;DHT22;8570;52.380;4.654;2022-11-15T13:48:31;12.40;99.90
16907;DHT22;8570;52.380;4.654;2022-11-15T13:53:36;12.40;99.90
16907;DHT22;8570;52.380;4.654;2022-11-15T13:58:40;12.40;99.90
16907;DHT22;8570;52.380;4.654;2022-11-15T14:03:52;12.40;99.90
16907;DHT22;8570;52.380;4.654;2022-11-15T14:09:16;12.30;99.90
16907;DHT22;8570;52.380;4.654;2022-11-15T14:14:26;12.30;99.90
16907;DHT22;8570;52.380;4.654;2022-11-15T14:19:40;12.20;99.90
16907;DHT22;8570;52.380;4.654;2022-11-15T14:24:43;12.20;99.90
16907;DHT22;8570;52.380;4.654;2022-11-15T14:29:46;12.20;99.90
16907;DHT22;8570;52.380;4.654;2022-11-15T14:34:54;12.20;99.90
16907;DHT22;8570;52.380;4.654;2022-11-15T14:39:56;12.10;99.90
16907;DHT22;8570;52.380;4.654;2022-11-15T14:44:58;12.10;99.90
16907;DHT22;8570;52.380;4.654;2022-11-15T14:50:02;12.00;99.90
16907;DHT22;8570;52.380;4.654;2022-11-15T14:55:13;12.00;99.90
16907;DHT22;8570;52.380;4.654;2022-11-15T15:00:17;12.00;99.90
16907;DHT22;8570;52.380;4.654;2022-11-15T15:05:22;12.00;99.90
16907;DHT22;8570;52.380;4.654;2022-11-15T15:10:25;12.00;99.90
16907;DHT22;8570;52.380;4.654;2022-11-15T15:15:32;11.90;99.90
16907;DHT22;8570;52.380;4.654;2022-11-15T15:20:39;11.90;99.90
16907;DHT22;8570;52.380;4.654;2022-11-15T15:25:41;11.90;99.90
16907;DHT22;8570;52.380;4.654;2022-11-15T15:30:44;11.90;99.90
16907;DHT22;8570;52.380;4.654;2022-11-15T15:35:47;11.80;99.90
16907;DHT22;8570;52.380;4.654;2022-11-15T15:40:49;11.80;99.90
16907;DHT22;8570;52.380;4.654;2022-11-15T15:45:51;11.80;99.90
16907;DHT22;8570;52.380;4.654;2022-11-15T15:50:54;11.80;99.90
16907;DHT22;8570;52.380;4.654;2022-11-15T15:55:56;11.70;99.90
16907;DHT22;8570;52.380;4.654;2022-11-15T16:00:58;11.70;99.90
16907;DHT22;8570;52.380;4.654;2022-11-15T16:06:01;11.70;99.90
16907;DHT22;8570;52.380;4.654;2022-11-15T16:11:04;11.70;99.90
16907;DHT22;8570;52.380;4.654;2022-11-15T16:16:09;11.60;99.90
16907;DHT22;8570;52.380;4.654;2022-11-15T16:21:15;11.60;99.90
16907;DHT22;8570;52.380;4.654;2022-11-15T16:26:20;11.70;99.90
16907;DHT22;8570;52.380;4.654;2022-11-15T16:31:23;11.60;99.90
16907;DHT22;8570;52.380;4.654;2022-11-15T16:36:27;11.60;99.90
16907;DHT22;8570;52.380;4.654;2022-11-15T16:41:31;11.60;99.90
16907;DHT22;8570;52.380;4.654;2022-11-15T16:46:33;11.50;99.90
16907;DHT22;8570;52.380;4.654;2022-11-15T16:51:36;11.50;99.90
16907;DHT22;8570;52.380;4.654;2022-11-15T16:56:39;11.50;99.90
16907;DHT22;8570;52.380;4.654;2022-11-15T17:06:51;11.40;99.90
16907;DHT22;8570;52.380;4.654;2022-11-15T17:11:53;11.40;99.90
16907;DHT22;8570;52.380;4.654;2022-11-15T17:16:55;11.30;99.90
16907;DHT22;8570;52.380;4.654;2022-11-15T17:21:58;11.30;99.90
16907;DHT22;8570;52.380;4.654;2022-11-15T17:27:00;11.20;99.90
16907;DHT22;8570;52.380;4.654;2022-11-15T17:32:02;11.20;99.90
16907;DHT22;8570;52.380;4.654;2022-11-15T17:37:05;11.20;99.90
16907;DHT22;8570;52.380;4.654;2022-11-15T17:42:07;11.10;99.90
16907;DHT22;8570;52.380;4.654;2022-11-15T17:47:09;11.10;99.90
16907;DHT22;8570;52.380;4.654;2022-11-15T17:52:12;11.10;99.90
16907;DHT22;8570;52.380;4.654;2022-11-15T17:57:14;11.10;99.90
16907;DHT22;8570;52.380;4.654;2022-11-15T18:02:15;11.10;99.90
16907;DHT22;8570;52.380;4.654;2022-11-15T18:07:20;11.00;99.90
16907;DHT22;8570;52.380;4.654;2022-11-15T18:12:22;11.00;99.90
16907;DHT22;8570;52.380;4.654;2022-11-15T18:17:23;11.00;99.90
16907;DHT22;8570;52.380;4.654;2022-11-15T18:22:27;11.00;99.90
16907;DHT22;8570;52.380;4.654;2022-11-15T18:27:28;11.00;99.90
16907;DHT22;8570;52.380;4.654;2022-11-15T18:32:30;10.90;99.90
16907;DHT22;8570;52.380;4.654;2022-11-15T18:37:33;11.00;99.90
16907;DHT22;8570;52.380;4.654;2022-11-15T18:42:35;11.00;99.90
16907;DHT22;8570;52.380;4.654;2022-11-15T18:47:37;11.00;99.90
16907;DHT22;8570;52.380;4.654;2022-11-15T18:52:41;11.00;99.90
16907;DHT22;8570;52.380;4.654;2022-11-15T18:57:43;11.00;99.90
16907;DHT22;8570;52.380;4.654;2022-11-15T19:02:45;11.00;99.90
16907;DHT22;8570;52.380;4.654;2022-11-15T19:07:48;11.00;99.90
16907;DHT22;8570;52.380;4.654;2022-11-15T19:12:51;11.00;99.90
16907;DHT22;8570;52.380;4.654;2022-11-15T19:17:53;11.10;99.90
16907;DHT22;8570;52.380;4.654;2022-11-15T19:22:56;11.10;99.90
16907;DHT22;8570;52.380;4.654;2022-11-15T19:27:58;11.10;99.90
16907;DHT22;8570;52.380;4.654;2022-11-15T19:33:00;11.10;99.90
16907;DHT22;8570;52.380;4.654;2022-11-15T19:38:03;11.10;99.90
16907;DHT22;8570;52.380;4.654;2022-11-15T19:43:05;11.10;99.90
16907;DHT22;8570;52.380;4.654;2022-11-15T19:48:07;11.10;99.90
16907;DHT22;8570;52.380;4.654;2022-11-15T19:53:10;11.10;99.90
16907;DHT22;8570;52.380;4.654;2022-11-15T19:58:12;11.10;99.90
16907;DHT22;8570;52.380;4.654;2022-11-15T20:03:19;11.10;99.90
16907;DHT22;8570;52.380;4.654;2022-11-15T20:08:23;11.10;99.90
16907;DHT22;8570;52.380;4.654;2022-11-15T20:13:25;11.20;99.90
16907;DHT22;8570;52.380;4.654;2022-11-15T20:18:28;11.20;99.90
16907;DHT22;8570;52.380;4.654;2022-11-15T20:23:31;11.20;99.90
16907;DHT22;8570;52.380;4.654;2022-11-15T20:28:35;11.20;99.90
16907;DHT22;8570;52.380;4.654;2022-11-15T20:33:38;11.20;99.90
16907;DHT22;8570;52.380;4.654;2022-11-15T20:38:42;11.20;99.90
16907;DHT22;8570;52.380;4.654;2022-11-15T20:43:44;11.20;99.90
16907;DHT22;8570;52.380;4.654;2022-11-15T20:48:46;11.20;99.90
16907;DHT22;8570;52.380;4.654;2022-11-15T20:53:50;11.30;99.90
16907;DHT22;8570;52.380;4.654;2022-11-15T20:58:52;11.30;99.90
16907;DHT22;8570;52.380;4.654;2022-11-15T21:03:55;11.30;99.90
16907;DHT22;8570;52.380;4.654;2022-11-15T21:08:58;11.30;99.90
16907;DHT22;8570;52.380;4.654;2022-11-15T21:14:17;11.30;99.90
16907;DHT22;8570;52.380;4.654;2022-11-15T21:19:19;11.30;99.90
16907;DHT22;8570;52.380;4.654;2022-11-15T21:24:22;11.40;99.90
16907;DHT22;8570;52.380;4.654;2022-11-15T21:29:24;11.30;99.90
16907;DHT22;8570;52.380;4.654;2022-11-15T21:34:30;11.40;99.90
16907;DHT22;8570;52.380;4.654;2022-11-15T21:39:33;11.40;99.90
16907;DHT22;8570;52.380;4.654;2022-11-15T21:44:35;11.40;99.90
16907;DHT22;8570;52.380;4.654;2022-11-15T21:49:37;11.40;99.90
16907;DHT22;8570;52.380;4.654;2022-11-15T21:54:40;11.40;99.90
16907;DHT22;8570;52.380;4.654;2022-11-15T21:59:43;11.50;99.90
16907;DHT22;8570;52.380;4.654;2022-11-15T22:05:04;11.50;99.90
16907;DHT22;8570;52.380;4.654;2022-11-15T22:10:08;11.50;99.90
16907;DHT22;8570;52.380;4.654;2022-11-15T22:15:10;11.50;99.90
16907;DHT22;8570;52.380;4.654;2022-11-15T22:20:12;11.60;99.90
16907;DHT22;8570;52.380;4.654;2022-11-15T22:25:15;11.50;99.90
16907;DHT22;8570;52.380;4.654;2022-11-15T22:30:17;11.60;99.90
16907;DHT22;8570;52.380;4.654;2022-11-15T22:35:19;11.60;99.90
16907;DHT22;8570;52.380;4.654;2022-11-15T22:40:23;11.60;99.90
16907;DHT22;8570;52.380;4.654;2022-11-15T22:45:25;11.70;99.90
16907;DHT22;8570;52.380;4.654;2022-11-15T22:50:27;11.70;99.90
16907;DHT22;8570;52.380;4.654;2022-11-15T22:55:30;11.70;99.90
16907;DHT22;8570;52.380;4.654;2022-11-15T23:00:32;11.70;99.90
16907;DHT22;8570;52.380;4.654;2022-11-15T23:05:36;11.70;99.90
16907;DHT22;8570;52.380;4.654;2022-11-15T23:10:40;11.80;99.90
16907;DHT22;8570;52.380;4.654;2022-11-15T23:16:01;11.80;99.90
16907;DHT22;8570;52.380;4.654;2022-11-15T23:21:23;11.80;99.90
16907;DHT22;8570;52.380;4.654;2022-11-15T23:26:45;11.80;99.90
16907;DHT22;8570;52.380;4.654;2022-11-15T23:31:49;11.80;99.90
16907;DHT22;8570;52.380;4.654;2022-11-15T23:37:11;11.80;99.90
16907;DHT22;8570;52.380;4.654;2022-11-15T23:42:15;11.90;99.90
16907;DHT22;8570;52.380;4.654;2022-11-15T23:47:19;11.90;99.90
16907;DHT22;8570;52.380;4.654;2022-11-15T23:52:21;11.90;99.90
16907;DHT22;8570;52.380;4.654;2022-11-15T23:57:26;11.80;99.90
